Time;durP1;ratioP1;P1;durP2;ratioP2;P2;SDS_P1;SDS_P2;PMS_P1;PMS_P2;Temp;Humidity;BMP_temperature;BMP_pressure;BME280_temperature;BME280_humidity;BME280_pressure;Samples;Min_cycle;Max_cycle;Signal;HPM_P1;HPM_P2
2022/12/07 00:01:08;;;;;;;10.98;3.28;;;3.40;99.90;;;;;;5078177;28;20055;-70
2022/12/07 00:03:35;;;;;;;10.10;2.90;;;3.40;99.90;;;;;;5068980;28;20048;-70
2022/12/07 00:06:02;;;;;;;8.15;2.78;;;3.20;99.90;;;;;;5086754;28;20040;-70
2022/12/07 00:08:28;;;;;;;9.07;2.58;;;3.20;99.90;;;;;;5086887;28;20055;-70
2022/12/07 00:10:54;;;;;;;9.65;2.67;;;3.20;99.90;;;;;;5068072;28;20059;-70
2022/12/07 00:13:19;;;;;;;8.75;2.80;;;3.10;99.90;;;;;;5067370;28;20052;-70
2022/12/07 00:15:45;;;;;;;7.32;2.80;;;3.00;99.90;;;;;;5067453;28;20049;-70
2022/12/07 00:18:11;;;;;;;8.90;2.58;;;3.10;99.90;;;;;;5067197;28;20048;-70
2022/12/07 00:20:37;;;;;;;8.73;2.33;;;3.10;99.90;;;;;;5067171;28;20467;-71
2022/12/07 00:23:02;;;;;;;10.60;2.92;;;3.30;99.90;;;;;;5066826;28;20095;-70
2022/12/07 00:25:29;;;;;;;11.75;2.30;;;3.30;99.90;;;;;;5066514;28;20047;-71
2022/12/07 00:27:56;;;;;;;8.80;2.20;;;3.50;99.90;;;;;;5047968;28;20076;-70
2022/12/07 00:30:23;;;;;;;11.18;2.47;;;3.60;99.90;;;;;;5065522;28;20100;-70
2022/12/07 00:32:49;;;;;;;7.88;2.13;;;3.70;99.90;;;;;;5063202;28;20100;-70
2022/12/07 00:35:14;;;;;;;10.40;1.98;;;3.60;99.90;;;;;;5067492;28;20055;-70
2022/12/07 00:37:40;;;;;;;9.27;2.20;;;3.70;99.90;;;;;;5085173;28;20119;-70
2022/12/07 00:40:06;;;;;;;9.45;2.13;;;3.50;99.90;;;;;;5067001;28;20037;-70
2022/12/07 00:42:32;;;;;;;10.60;2.30;;;3.60;99.90;;;;;;5066716;28;20512;-70
2022/12/07 00:44:58;;;;;;;8.35;1.90;;;3.40;99.90;;;;;;5084841;28;20040;-70
2022/12/07 00:47:23;;;;;;;7.53;2.65;;;3.40;99.90;;;;;;5053619;28;20052;-70
2022/12/07 00:49:49;;;;;;;4.63;1.33;;;3.50;99.90;;;;;;5084600;28;20108;-70
2022/12/07 00:52:15;;;;;;;9.10;1.95;;;3.40;99.90;;;;;;5084341;28;20079;-70
2022/12/07 00:54:41;;;;;;;11.30;1.95;;;3.40;99.90;;;;;;5066800;28;20051;-70
2022/12/07 00:57:06;;;;;;;5.63;1.73;;;3.40;99.90;;;;;;5066352;28;20082;-70
2022/12/07 00:59:32;;;;;;;6.53;2.17;;;3.30;99.90;;;;;;5067173;28;20049;-70
2022/12/07 01:01:57;;;;;;;5.85;1.80;;;3.30;99.90;;;;;;5050104;28;20545;-70
2022/12/07 01:04:23;;;;;;;12.15;2.75;;;3.10;99.90;;;;;;5047142;28;20087;-70
2022/12/07 01:06:49;;;;;;;7.65;1.88;;;3.20;99.90;;;;;;5064331;28;20060;-70
2022/12/07 01:09:15;;;;;;;8.02;2.50;;;3.00;99.90;;;;;;5046783;28;20045;-70
2022/12/07 01:11:40;;;;;;;10.52;2.22;;;3.10;99.90;;;;;;5058736;28;20051;-70
2022/12/07 01:14:06;;;;;;;9.15;2.90;;;3.10;99.90;;;;;;5066733;28;20066;-70
2022/12/07 01:16:32;;;;;;;6.85;1.90;;;3.00;99.90;;;;;;5067275;28;20070;-70
2022/12/07 01:18:59;;;;;;;7.45;1.80;;;3.00;99.90;;;;;;5067784;28;20041;-70
2022/12/07 01:21:27;;;;;;;12.77;2.20;;;2.90;99.90;;;;;;5066867;28;20060;-70
2022/12/07 01:23:53;;;;;;;6.65;1.75;;;3.00;99.90;;;;;;5066270;28;20553;-70
2022/12/07 01:26:24;;;;;;;5.75;1.83;;;3.00;99.90;;;;;;5049934;28;20108;-70
2022/12/07 01:28:50;;;;;;;9.00;1.98;;;3.10;99.90;;;;;;5064192;28;20048;-70
2022/12/07 01:31:19;;;;;;;6.05;1.85;;;3.00;99.90;;;;;;5049956;28;20041;-70
2022/12/07 01:33:48;;;;;;;13.90;2.30;;;3.00;99.90;;;;;;5084007;28;20051;-70
2022/12/07 01:36:17;;;;;;;10.50;2.10;;;3.10;99.90;;;;;;5085095;28;20396;-70
2022/12/07 01:38:44;;;;;;;11.60;1.92;;;3.10;99.90;;;;;;5085618;28;20040;-70
2022/12/07 01:41:10;;;;;;;13.40;1.88;;;3.30;99.90;;;;;;5066798;28;20052;-70
2022/12/07 01:43:35;;;;;;;6.95;1.83;;;3.30;99.90;;;;;;5066232;28;20084;-70
2022/12/07 01:46:04;;;;;;;10.25;1.90;;;3.30;99.90;;;;;;5066007;28;20059;-70
2022/12/07 01:48:37;;;;;;;5.70;1.83;;;3.20;99.90;;;;;;5083740;28;20052;-70
2022/12/07 01:51:08;;;;;;;3.58;1.33;;;3.20;99.90;;;;;;5084069;28;20041;-70
2022/12/07 01:53:38;;;;;;;7.38;1.60;;;3.20;99.90;;;;;;5083561;28;20408;-70
2022/12/07 01:56:05;;;;;;;7.38;1.45;;;3.20;99.90;;;;;;5066406;28;20040;-70
2022/12/07 01:58:31;;;;;;;6.72;1.52;;;3.10;99.90;;;;;;5066287;28;20140;-70
2022/12/07 02:00:57;;;;;;;5.88;1.67;;;3.20;99.90;;;;;;5079355;28;20044;-70
2022/12/07 02:03:34;;;;;;;10.65;1.60;;;3.00;99.90;;;;;;5046238;28;20128;-70
2022/12/07 02:06:00;;;;;;;11.63;1.95;;;3.00;99.90;;;;;;5065144;28;20045;-70
2022/12/07 02:08:26;;;;;;;9.00;1.73;;;3.00;99.90;;;;;;5047283;28;20045;-70
2022/12/07 02:10:52;;;;;;;9.38;1.85;;;2.90;99.90;;;;;;5070089;28;20051;-70
2022/12/07 02:13:31;;;;;;;8.35;1.70;;;2.90;99.90;;;;;;5065688;28;20292;-70
2022/12/07 02:16:18;;;;;;;6.00;1.30;;;3.00;99.90;;;;;;5079070;28;20048;-70
2022/12/07 02:19:05;;;;;;;9.07;1.50;;;3.10;99.90;;;;;;5062142;28;20044;-70
2022/12/07 02:21:48;;;;;;;8.63;1.63;;;3.30;99.90;;;;;;5066932;28;20064;-70
2022/12/07 02:24:41;;;;;;;8.45;1.52;;;3.40;99.90;;;;;;5070159;28;20087;-70
2022/12/07 02:27:34;;;;;;;7.10;1.15;;;3.40;99.90;;;;;;5049608;28;20051;-70
2022/12/07 02:30:12;;;;;;;7.38;1.63;;;3.50;99.90;;;;;;5046329;28;20045;-70
2022/12/07 02:33:09;;;;;;;8.40;2.28;;;3.40;99.90;;;;;;5061764;28;20139;-70
2022/12/07 02:35:55;;;;;;;7.72;2.35;;;3.40;99.90;;;;;;5065601;28;20584;-70
2022/12/07 02:38:31;;;;;;;10.48;1.65;;;3.40;99.90;;;;;;5083396;28;20052;-70
2022/12/07 02:41:16;;;;;;;6.20;1.48;;;3.40;99.90;;;;;;5065322;28;20492;-70
2022/12/07 02:43:44;;;;;;;7.90;1.30;;;3.30;99.90;;;;;;5083211;28;20032;-70
2022/12/07 02:46:15;;;;;;;6.15;1.20;;;3.20;99.90;;;;;;5065085;28;20049;-70
2022/12/07 02:48:43;;;;;;;6.95;1.92;;;3.10;99.90;;;;;;5078779;28;20134;-70
2022/12/07 02:51:09;;;;;;;5.68;1.02;;;2.90;99.90;;;;;;5059080;28;20119;-70
2022/12/07 02:53:43;;;;;;;5.22;1.25;;;3.00;99.90;;;;;;5086850;28;20041;-70
2022/12/07 02:56:24;;;;;;;7.65;1.15;;;2.80;99.90;;;;;;5086812;28;20058;-70
2022/12/07 02:58:59;;;;;;;6.15;1.40;;;2.80;99.90;;;;;;5086813;28;20063;-70
2022/12/07 03:01:40;;;;;;;14.20;1.92;;;2.70;99.90;;;;;;5075775;28;20045;-70
2022/12/07 03:04:33;;;;;;;8.27;1.50;;;2.70;99.90;;;;;;5049906;28;20105;-70
2022/12/07 03:07:15;;;;;;;8.65;2.47;;;2.80;99.90;;;;;;5067348;28;20037;-70
2022/12/07 03:09:48;;;;;;;11.48;2.63;;;2.90;99.90;;;;;;5049591;28;20060;-70
2022/12/07 03:12:21;;;;;;;5.45;1.00;;;2.80;99.90;;;;;;5078862;28;20040;-70
2022/12/07 03:15:11;;;;;;;12.43;1.50;;;3.00;99.90;;;;;;5068875;28;20037;-70
2022/12/07 03:17:40;;;;;;;9.27;1.52;;;3.10;99.90;;;;;;5086754;28;20052;-70
2022/12/07 03:20:09;;;;;;;12.90;1.50;;;3.40;99.90;;;;;;5068460;28;20100;-70
2022/12/07 03:22:37;;;;;;;8.23;1.30;;;3.30;99.90;;;;;;5086780;28;20413;-70
2022/12/07 03:25:09;;;;;;;8.65;1.20;;;3.60;99.90;;;;;;5086037;28;20044;-70
2022/12/07 03:27:55;;;;;;;9.23;1.33;;;3.70;99.90;;;;;;5055036;28;20505;-70
2022/12/07 03:30:32;;;;;;;8.30;1.27;;;3.70;99.90;;;;;;5068071;28;20048;-70
2022/12/07 03:33:10;;;;;;;7.10;1.10;;;3.60;99.90;;;;;;5068552;28;20096;-70
2022/12/07 03:35:47;;;;;;;3.83;1.65;;;3.60;99.90;;;;;;5086826;28;20047;-70
2022/12/07 03:38:25;;;;;;;8.75;1.70;;;3.70;99.90;;;;;;5085872;28;20049;-70
2022/12/07 03:40:58;;;;;;;6.18;1.45;;;3.60;99.90;;;;;;5068679;28;20572;-70
2022/12/07 03:43:24;;;;;;;5.97;1.20;;;3.60;99.90;;;;;;5086310;28;20044;-70
2022/12/07 03:46:05;;;;;;;8.40;1.20;;;3.70;99.90;;;;;;5067438;28;20072;-70
2022/12/07 03:48:46;;;;;;;7.03;1.40;;;3.60;99.90;;;;;;5068602;28;20086;-70
2022/12/07 03:51:22;;;;;;;6.85;2.40;;;3.70;99.90;;;;;;5087107;28;20048;-70
2022/12/07 03:53:58;;;;;;;5.07;1.60;;;3.40;99.90;;;;;;5087032;28;20052;-70
2022/12/07 03:56:25;;;;;;;6.00;1.42;;;3.30;99.90;;;;;;5085430;28;20039;-70
2022/12/07 03:58:52;;;;;;;6.75;1.15;;;3.50;99.90;;;;;;5047877;28;20103;-70
2022/12/07 04:01:18;;;;;;;4.88;1.50;;;3.50;99.90;;;;;;5079242;28;20172;-70
2022/12/07 04:03:44;;;;;;;6.82;1.23;;;3.50;99.90;;;;;;5047479;28;20072;-70
2022/12/07 04:06:10;;;;;;;4.22;0.95;;;3.50;99.90;;;;;;5065402;28;20063;-70
2022/12/07 04:08:35;;;;;;;5.25;1.35;;;3.60;99.90;;;;;;5047709;28;20049;-70
2022/12/07 04:11:01;;;;;;;7.53;1.30;;;3.70;99.90;;;;;;5069350;28;20040;-70
2022/12/07 04:13:27;;;;;;;5.15;1.02;;;3.60;99.90;;;;;;5085516;28;20102;-70
2022/12/07 04:15:52;;;;;;;6.47;1.00;;;3.60;99.90;;;;;;5067094;28;20079;-70
2022/12/07 04:18:18;;;;;;;7.72;1.10;;;3.60;99.90;;;;;;5085373;28;20088;-70
2022/12/07 04:20:45;;;;;;;6.93;1.15;;;3.60;99.90;;;;;;5067007;28;20044;-71
2022/12/07 04:23:10;;;;;;;13.30;1.50;;;3.70;99.90;;;;;;5086281;28;20103;-70
2022/12/07 04:25:36;;;;;;;9.77;1.35;;;3.60;99.90;;;;;;5065388;28;20489;-70
2022/12/07 04:28:02;;;;;;;7.53;1.30;;;3.60;99.90;;;;;;5065814;28;20400;-70
2022/12/07 04:30:27;;;;;;;7.28;1.30;;;3.50;99.90;;;;;;5065365;28;20481;-70
2022/12/07 04:32:53;;;;;;;8.45;1.70;;;3.50;99.90;;;;;;5064773;28;20049;-70
2022/12/07 04:35:19;;;;;;;9.48;1.40;;;3.40;99.90;;;;;;5085970;28;20075;-70
2022/12/07 04:37:44;;;;;;;8.93;1.55;;;3.40;99.90;;;;;;5067337;28;20554;-70
2022/12/07 04:40:14;;;;;;;7.22;1.20;;;3.30;99.90;;;;;;5066613;28;20126;-70
2022/12/07 04:42:39;;;;;;;4.97;1.52;;;3.30;99.90;;;;;;5073960;28;20451;-70
2022/12/07 04:45:06;;;;;;;7.72;1.30;;;3.20;99.90;;;;;;5063660;28;20074;-70
2022/12/07 04:47:31;;;;;;;13.35;1.30;;;3.00;99.90;;;;;;5084637;28;20100;-70
2022/12/07 04:49:57;;;;;;;7.57;1.25;;;2.90;99.90;;;;;;5085444;28;20036;-70
2022/12/07 04:52:23;;;;;;;7.93;1.20;;;2.70;99.90;;;;;;5084871;28;20051;-70
2022/12/07 04:54:48;;;;;;;7.38;1.50;;;2.50;99.90;;;;;;5066544;28;20486;-70
2022/12/07 04:57:14;;;;;;;6.30;1.38;;;2.50;99.90;;;;;;5066574;28;20100;-70
2022/12/07 04:59:40;;;;;;;9.18;1.48;;;2.50;99.90;;;;;;5067492;28;20044;-70
2022/12/07 05:02:05;;;;;;;6.75;1.42;;;2.50;99.90;;;;;;5066973;28;20064;-70
2022/12/07 05:04:31;;;;;;;9.38;1.45;;;2.30;99.90;;;;;;5047082;28;20045;-70
2022/12/07 05:06:57;;;;;;;11.23;1.92;;;2.30;99.90;;;;;;5046444;28;20045;-70
2022/12/07 05:09:23;;;;;;;9.60;2.60;;;2.30;99.90;;;;;;5046664;28;20041;-70
2022/12/07 05:11:49;;;;;;;7.40;1.20;;;2.50;99.90;;;;;;5069064;28;20044;-70
2022/12/07 05:14:21;;;;;;;7.78;1.30;;;2.40;99.90;;;;;;5084137;28;20036;-70
2022/12/07 05:16:49;;;;;;;9.60;1.55;;;2.40;99.90;;;;;;5065730;28;20047;-71
2022/12/07 05:19:15;;;;;;;9.05;1.48;;;2.40;99.90;;;;;;5084269;28;20072;-70
2022/12/07 05:21:41;;;;;;;9.02;1.70;;;2.60;99.90;;;;;;5084170;28;20050;-70
2022/12/07 05:24:09;;;;;;;9.32;1.58;;;2.70;99.90;;;;;;5084149;28;20095;-70
2022/12/07 05:26:35;;;;;;;9.55;1.65;;;2.90;99.90;;;;;;5064248;28;20045;-70
2022/12/07 05:29:00;;;;;;;12.88;1.73;;;2.90;99.90;;;;;;5066357;28;20132;-70
2022/12/07 05:31:27;;;;;;;8.52;1.40;;;2.90;99.90;;;;;;5084788;28;20052;-70
2022/12/07 05:33:53;;;;;;;8.45;1.25;;;3.00;99.90;;;;;;5084569;28;20079;-70
2022/12/07 05:36:19;;;;;;;9.20;1.20;;;3.10;99.90;;;;;;5083587;28;20072;-70
2022/12/07 05:38:45;;;;;;;6.13;1.30;;;2.90;99.90;;;;;;5067005;28;20045;-70
2022/12/07 05:43:59;;;;;;;6.57;1.33;;;2.90;99.90;;;;;;5066588;28;20572;-70
2022/12/07 05:46:24;;;;;;;8.18;1.65;;;2.70;99.90;;;;;;5066096;28;20052;-70
2022/12/07 05:48:50;;;;;;;4.85;1.10;;;2.60;99.90;;;;;;5065829;28;20051;-70
2022/12/07 05:51:16;;;;;;;6.75;1.23;;;2.40;99.90;;;;;;5083854;28;20040;-70
2022/12/07 05:53:41;;;;;;;3.20;0.88;;;2.40;99.90;;;;;;5066364;28;20051;-70
2022/12/07 05:56:07;;;;;;;7.43;1.30;;;2.40;99.90;;;;;;5083776;28;20052;-70
2022/12/07 06:01:17;;;;;;;4.18;1.05;;;2.20;99.90;;;;;;5064765;28;20106;-70
2022/12/07 06:03:43;;;;;;;5.40;0.98;;;2.00;99.90;;;;;;5046978;28;20044;-70
2022/12/07 06:06:08;;;;;;;6.50;1.30;;;2.00;99.90;;;;;;5063556;28;20044;-70
2022/12/07 06:08:34;;;;;;;7.03;1.98;;;1.80;99.90;;;;;;5046555;28;20056;-70
2022/12/07 06:13:44;;;;;;;7.95;1.60;;;1.90;99.90;;;;;;5061985;28;20131;-70
2022/12/07 06:16:09;;;;;;;6.25;1.05;;;1.90;99.90;;;;;;5066805;28;20044;-71
2022/12/07 06:18:35;;;;;;;6.32;1.52;;;1.90;99.90;;;;;;5027415;28;20215;-69
2022/12/07 06:21:01;;;;;;;6.63;1.20;;;1.90;99.90;;;;;;5054583;28;20064;-68
2022/12/07 06:23:26;;;;;;;4.45;0.95;;;2.10;99.90;;;;;;5061396;28;20057;-69
2022/12/07 06:25:52;;;;;;;8.23;0.95;;;2.00;99.90;;;;;;5045155;28;20041;-72
2022/12/07 06:28:17;;;;;;;4.22;1.30;;;2.00;99.90;;;;;;5031701;28;20293;-69
2022/12/07 06:30:43;;;;;;;6.90;1.20;;;2.10;99.90;;;;;;5025556;28;20059;-69
2022/12/07 06:33:09;;;;;;;10.30;1.60;;;2.00;99.90;;;;;;5075184;28;20040;-69
2022/12/07 06:35:34;;;;;;;4.68;1.20;;;2.00;99.90;;;;;;5080516;28;20040;-70
2022/12/07 06:38:00;;;;;;;6.72;1.33;;;1.90;99.90;;;;;;5060947;28;20049;-70
2022/12/07 06:40:26;;;;;;;10.07;1.80;;;1.90;99.90;;;;;;5062841;28;20075;-70
2022/12/07 06:42:51;;;;;;;10.48;2.47;;;2.10;99.90;;;;;;5035453;28;20051;-69
2022/12/07 06:45:17;;;;;;;8.60;2.08;;;2.00;99.90;;;;;;5063718;28;20044;-69
2022/12/07 06:47:42;;;;;;;9.38;1.50;;;2.00;99.90;;;;;;5067971;28;20107;-69
2022/12/07 06:50:09;;;;;;;5.88;1.30;;;2.00;99.90;;;;;;5077686;28;20048;-69
2022/12/07 06:52:34;;;;;;;18.77;2.17;;;2.10;99.90;;;;;;5071217;28;20085;-69
2022/12/07 06:55:00;;;;;;;8.88;1.85;;;2.00;99.90;;;;;;5077579;28;20032;-69
2022/12/07 06:57:26;;;;;;;8.43;2.13;;;2.20;99.90;;;;;;5034246;28;20076;-69
2022/12/07 06:59:52;;;;;;;10.30;2.15;;;2.40;99.90;;;;;;5079898;28;20122;-69
2022/12/07 07:02:17;;;;;;;11.68;1.83;;;2.40;99.90;;;;;;5082796;28;20141;-70
2022/12/07 07:04:43;;;;;;;6.68;1.23;;;2.50;99.90;;;;;;5100132;28;20036;-69
2022/12/07 07:07:09;;;;;;;6.72;1.40;;;2.50;99.90;;;;;;5070125;28;20054;-70
2022/12/07 07:09:35;;;;;;;9.82;1.40;;;2.70;99.90;;;;;;5081944;28;20226;-73
2022/12/07 07:12:00;;;;;;;9.75;1.33;;;2.80;99.90;;;;;;5072659;28;20055;-73
2022/12/07 07:14:26;;;;;;;6.43;1.10;;;2.90;99.90;;;;;;5066879;28;20043;-72
2022/12/07 07:16:52;;;;;;;8.38;1.50;;;2.80;99.90;;;;;;5066824;28;20048;-74
2022/12/07 07:19:18;;;;;;;10.32;1.40;;;2.80;99.90;;;;;;5033365;28;20049;-74
2022/12/07 07:21:43;;;;;;;8.20;1.20;;;2.70;99.90;;;;;;5076362;28;20047;-73
2022/12/07 07:24:10;;;;;;;10.20;1.95;;;2.60;99.90;;;;;;5069753;28;20048;-72
2022/12/07 07:26:35;;;;;;;10.65;1.33;;;2.70;99.90;;;;;;5046345;28;20085;-72
2022/12/07 07:29:01;;;;;;;5.05;1.10;;;2.60;99.90;;;;;;5061409;28;20049;-72
2022/12/07 07:31:27;;;;;;;9.52;1.20;;;2.60;99.90;;;;;;5058278;28;20147;-73
2022/12/07 07:33:52;;;;;;;7.40;1.88;;;2.60;99.90;;;;;;5069305;28;20039;-71
2022/12/07 07:36:18;;;;;;;13.55;2.47;;;2.40;99.90;;;;;;5063389;28;20606;-70
2022/12/07 07:38:43;;;;;;;10.60;1.83;;;2.50;99.90;;;;;;5049670;28;20139;-68
2022/12/07 07:41:09;;;;;;;12.65;2.03;;;2.40;99.90;;;;;;5051111;28;20052;-71
2022/12/07 07:43:35;;;;;;;9.50;2.08;;;2.30;99.90;;;;;;5061649;28;20125;-72
2022/12/07 07:46:00;;;;;;;8.32;2.13;;;2.40;99.90;;;;;;5036165;28;20044;-72
2022/12/07 07:48:26;;;;;;;7.05;1.40;;;2.50;99.90;;;;;;5070766;28;20056;-72
2022/12/07 07:50:52;;;;;;;8.57;1.30;;;2.50;99.90;;;;;;5050987;28;20051;-73
2022/12/07 07:53:18;;;;;;;6.47;1.58;;;2.60;99.90;;;;;;5061617;28;20059;-72
2022/12/07 07:55:53;;;;;;;9.65;1.63;;;2.90;99.90;;;;;;5061448;28;20044;-72
2022/12/07 07:58:19;;;;;;;3.30;1.20;;;2.90;99.90;;;;;;5051052;28;20056;-72
2022/12/07 08:00:45;;;;;;;7.05;1.33;;;3.20;99.90;;;;;;5061094;28;20060;-72
2022/12/07 08:03:11;;;;;;;9.40;1.40;;;3.20;99.90;;;;;;5049790;28;20056;-72
2022/12/07 08:05:38;;;;;;;8.10;1.70;;;3.20;99.90;;;;;;5077802;28;20045;-72
2022/12/07 08:08:04;;;;;;;11.45;1.58;;;3.30;99.90;;;;;;5070792;28;20955;-73
2022/12/07 08:10:31;;;;;;;10.75;1.92;;;3.30;99.90;;;;;;5087108;28;20105;-72
2022/12/07 08:13:10;;;;;;;9.68;1.88;;;3.30;99.90;;;;;;5070782;28;20090;-72
2022/12/07 08:15:38;;;;;;;8.20;2.17;;;3.30;99.90;;;;;;5083077;28;20051;-71
2022/12/07 08:18:03;;;;;;;8.85;1.52;;;3.10;99.90;;;;;;5057771;28;20101;-72
2022/12/07 08:20:34;;;;;;;4.07;1.20;;;3.10;99.90;;;;;;5069044;28;20048;-73
2022/12/07 08:23:00;;;;;;;8.63;1.70;;;3.10;99.90;;;;;;5086618;28;20142;-75
2022/12/07 08:25:26;;;;;;;12.02;1.75;;;2.90;99.90;;;;;;5063106;28;20079;-70
2022/12/07 08:27:52;;;;;;;5.40;0.93;;;2.80;99.90;;;;;;5087209;28;20598;-70
2022/12/07 08:30:18;;;;;;;4.18;0.95;;;2.50;99.90;;;;;;5063582;28;20060;-69
2022/12/07 08:32:45;;;;;;;3.80;1.52;;;2.50;99.90;;;;;;5061088;28;20057;-69
2022/12/07 08:35:10;;;;;;;7.07;1.65;;;2.40;99.90;;;;;;5077419;28;20047;-69
2022/12/07 08:37:37;;;;;;;12.85;3.38;;;2.40;99.90;;;;;;5052856;28;20055;-74
2022/12/07 08:40:04;;;;;;;8.98;1.88;;;2.40;99.90;;;;;;5064750;28;20113;-68
2022/12/07 08:42:37;;;;;;;8.32;1.85;;;2.40;99.90;;;;;;5075865;28;20056;-68
2022/12/07 08:45:07;;;;;;;8.73;1.67;;;2.40;99.90;;;;;;5054931;28;20049;-68
2022/12/07 08:47:34;;;;;;;;;;;2.70;99.90;;;;;;5062641;28;20124;-70
2022/12/07 08:50:03;;;;;;;11.98;2.00;;;2.70;99.90;;;;;;5092755;28;19932;-70
2022/12/07 08:52:30;;;;;;;9.50;2.20;;;2.80;99.90;;;;;;5068712;28;20109;-68
2022/12/07 08:54:56;;;;;;;7.28;1.70;;;2.90;99.90;;;;;;5065585;28;20052;-68
2022/12/07 08:57:22;;;;;;;9.57;2.60;;;2.80;99.90;;;;;;5085064;28;20056;-67
2022/12/07 08:59:48;;;;;;;8.38;2.40;;;2.90;99.90;;;;;;5067497;28;20044;-67
2022/12/07 09:02:13;;;;;;;12.55;3.45;;;3.00;99.90;;;;;;5055770;28;20086;-66
2022/12/07 09:04:39;;;;;;;5.63;1.55;;;3.20;99.90;;;;;;5073402;28;20040;-67
2022/12/07 09:07:05;;;;;;;6.05;1.52;;;3.40;99.90;;;;;;5057297;28;20068;-67
2022/12/07 09:09:32;;;;;;;11.05;1.92;;;3.30;99.90;;;;;;5042404;28;20660;-68
2022/12/07 09:11:57;;;;;;;7.95;1.83;;;3.50;99.90;;;;;;5028788;28;20075;-67
2022/12/07 09:14:23;;;;;;;11.88;2.10;;;3.50;99.90;;;;;;5042833;28;20104;-66
2022/12/07 09:16:49;;;;;;;9.45;1.95;;;3.40;99.90;;;;;;5017234;28;20056;-67
2022/12/07 09:19:16;;;;;;;9.80;1.75;;;3.50;99.90;;;;;;5036958;28;20084;-67
2022/12/07 09:21:42;;;;;;;7.57;1.60;;;3.40;99.90;;;;;;5045607;28;20056;-67
2022/12/07 09:24:09;;;;;;;11.02;1.67;;;3.40;99.90;;;;;;5037996;28;20045;-67
2022/12/07 09:26:35;;;;;;;9.80;1.60;;;3.40;99.90;;;;;;4994138;28;20070;-67
2022/12/07 09:29:02;;;;;;;12.10;1.98;;;3.70;99.90;;;;;;5031842;28;20057;-67
2022/12/07 09:31:27;;;;;;;9.50;2.00;;;3.70;99.90;;;;;;5042411;28;20066;-67
2022/12/07 09:34:00;;;;;;;8.75;1.92;;;3.70;99.90;;;;;;5019314;28;20041;-67
2022/12/07 09:36:27;;;;;;;7.55;1.75;;;3.80;99.90;;;;;;5045933;28;20043;-67
2022/12/07 09:38:52;;;;;;;9.45;1.67;;;3.90;99.90;;;;;;5041719;28;20056;-67
2022/12/07 09:41:19;;;;;;;10.63;1.58;;;3.80;99.90;;;;;;5027595;28;20052;-67
2022/12/07 09:43:46;;;;;;;7.18;1.63;;;3.90;99.90;;;;;;5038928;28;20059;-67
2022/12/07 09:46:16;;;;;;;10.15;1.73;;;3.90;99.90;;;;;;5022310;28;20049;-68
2022/12/07 09:48:43;;;;;;;5.20;1.60;;;4.00;99.90;;;;;;5039071;28;20041;-67
2022/12/07 09:51:23;;;;;;;5.90;1.50;;;4.10;99.90;;;;;;5055239;28;20060;-67
2022/12/07 09:53:50;;;;;;;6.27;1.60;;;4.30;99.90;;;;;;5012472;28;20068;-67
2022/12/07 09:56:17;;;;;;;10.43;1.90;;;4.30;99.90;;;;;;5033976;28;20084;-67
2022/12/07 09:58:44;;;;;;;9.90;1.85;;;4.30;99.90;;;;;;5036788;28;20097;-67
2022/12/07 10:01:17;;;;;;;7.57;1.48;;;4.40;99.90;;;;;;5024607;28;20053;-67
2022/12/07 10:03:54;;;;;;;12.85;1.90;;;4.40;99.90;;;;;;4994399;28;20050;-67
2022/12/07 10:06:20;;;;;;;7.65;2.13;;;4.60;99.90;;;;;;5013132;28;20046;-71
2022/12/07 10:08:46;;;;;;;7.05;1.48;;;4.50;99.90;;;;;;5036812;28;20109;-68
2022/12/07 10:11:14;;;;;;;14.30;2.28;;;4.50;99.90;;;;;;5018081;28;20064;-65
2022/12/07 10:13:47;;;;;;;7.25;1.50;;;4.60;99.90;;;;;;5024995;28;20073;-67
2022/12/07 10:16:37;;;;;;;12.63;1.80;;;4.50;99.90;;;;;;5036524;28;20077;-64
2022/12/07 10:19:38;;;;;;;9.20;2.30;;;4.50;99.90;;;;;;5004147;28;20125;-65
2022/12/07 10:22:10;;;;;;;11.27;2.17;;;4.50;99.90;;;;;;4965230;28;20038;-64
2022/12/07 10:24:39;;;;;;;9.30;2.08;;;4.50;99.90;;;;;;4991354;28;20100;-66
2022/12/07 10:27:16;;;;;;;11.27;1.77;;;4.50;99.90;;;;;;4978121;28;20050;-66
2022/12/07 10:29:49;;;;;;;9.60;1.95;;;4.60;99.90;;;;;;5005898;28;20137;-66
2022/12/07 10:32:14;;;;;;;6.85;1.38;;;4.60;99.90;;;;;;4967386;28;20157;-67
2022/12/07 10:34:41;;;;;;;7.43;1.60;;;4.60;99.90;;;;;;4984726;28;20098;-66
2022/12/07 10:37:18;;;;;;;5.63;1.38;;;4.60;99.90;;;;;;4968165;28;20077;-67
2022/12/07 10:39:54;;;;;;;6.75;1.30;;;4.50;99.90;;;;;;4978941;28;20487;-67
2022/12/07 10:42:26;;;;;;;7.13;1.83;;;4.70;99.90;;;;;;4978259;28;20093;-65
2022/12/07 10:45:15;;;;;;;5.68;1.73;;;4.70;99.90;;;;;;4974318;28;20054;-66
2022/12/07 10:48:08;;;;;;;5.82;1.33;;;4.60;99.90;;;;;;4990942;28;20055;-65
2022/12/07 10:50:48;;;;;;;7.60;1.48;;;4.60;99.90;;;;;;4975059;28;20061;-65
2022/12/07 10:53:49;;;;;;;6.78;1.65;;;4.60;99.90;;;;;;4963407;28;20061;-66
2022/12/07 10:56:22;;;;;;;;;;;4.50;99.90;;;;;;5020954;28;20311;-66
2022/12/07 10:59:06;;;;;;;5.97;1.15;;;4.60;99.90;;;;;;5047873;28;19920;-66
2022/12/07 11:01:46;;;;;;;3.83;1.77;;;4.50;99.90;;;;;;5047841;28;20052;-66
2022/12/07 11:04:41;;;;;;;8.87;1.30;;;4.60;99.90;;;;;;5054152;28;20088;-65
2022/12/07 11:07:36;;;;;;;6.72;2.20;;;4.70;99.90;;;;;;5054939;28;20067;-65
2022/12/07 11:10:09;;;;;;;5.90;1.05;;;4.90;99.90;;;;;;5055424;28;20057;-66
2022/12/07 11:13:01;;;;;;;4.70;1.42;;;5.00;99.90;;;;;;5050536;28;20063;-66
2022/12/07 11:15:43;;;;;;;6.28;1.08;;;5.00;99.90;;;;;;5044206;28;20045;-66
2022/12/07 11:18:37;;;;;;;6.45;1.33;;;5.00;99.90;;;;;;5052225;28;20730;-65
2022/12/07 11:21:23;;;;;;;9.07;3.05;;;5.00;99.90;;;;;;5057476;28;20049;-65
2022/12/07 11:24:01;;;;;;;6.07;1.92;;;4.90;99.90;;;;;;5087843;28;20048;-67
2022/12/07 11:27:11;;;;;;;10.65;2.20;;;4.90;99.90;;;;;;5062642;28;20056;-66
2022/12/07 11:30:01;;;;;;;10.23;1.83;;;5.00;99.90;;;;;;4987065;28;20057;-66
2022/12/07 11:32:51;;;;;;;7.10;1.60;;;5.00;99.90;;;;;;5010165;28;20049;-66
2022/12/07 11:35:42;;;;;;;5.80;1.63;;;5.10;99.90;;;;;;5035035;28;20061;-67
2022/12/07 11:38:18;;;;;;;;;;;5.10;99.90;;;;;;5005846;28;20080;-67
2022/12/07 11:40:51;;;;;;;8.35;1.65;;;5.00;99.90;;;;;;5032140;28;19964;-67
2022/12/07 11:43:19;;;;;;;12.80;2.95;;;5.00;99.90;;;;;;4997355;28;20097;-67
2022/12/07 11:45:54;;;;;;;8.77;1.50;;;5.00;99.90;;;;;;5015939;28;20045;-67
2022/12/07 11:48:30;;;;;;;4.97;1.48;;;4.90;99.90;;;;;;4985967;28;20154;-67
2022/12/07 11:50:59;;;;;;;9.43;1.45;;;4.90;99.90;;;;;;4986295;28;20049;-67
2022/12/07 11:53:26;;;;;;;6.70;1.35;;;4.80;99.90;;;;;;4996449;28;20053;-67
2022/12/07 11:55:52;;;;;;;10.32;1.60;;;4.60;99.90;;;;;;5013959;28;20570;-67
2022/12/07 11:58:33;;;;;;;7.07;1.35;;;4.50;99.90;;;;;;5024017;28;20315;-67
2022/12/07 12:01:14;;;;;;;10.90;1.23;;;4.60;99.90;;;;;;5012839;28;20152;-67
2022/12/07 12:04:11;;;;;;;3.40;1.10;;;4.50;99.90;;;;;;5025479;28;20099;-67
2022/12/07 12:06:39;;;;;;;7.00;1.20;;;4.60;99.90;;;;;;5017135;28;20124;-67
2022/12/07 12:09:23;;;;;;;4.07;1.08;;;4.40;99.90;;;;;;5078506;28;20056;-67
2022/12/07 12:12:07;;;;;;;4.85;1.20;;;4.50;99.90;;;;;;5042336;28;20060;-67
2022/12/07 12:15:09;;;;;;;3.30;1.27;;;4.50;99.90;;;;;;5092833;28;20071;-66
2022/12/07 12:17:53;;;;;;;3.90;0.80;;;4.60;99.90;;;;;;5085401;28;20048;-67
2022/12/07 12:20:39;;;;;;;4.95;0.88;;;4.60;99.90;;;;;;5067955;28;20052;-66
2022/12/07 12:23:40;;;;;;;3.28;1.13;;;4.60;99.90;;;;;;5082759;28;20084;-67
2022/12/07 12:26:14;;;;;;;7.13;1.02;;;4.70;99.90;;;;;;5045718;28;20063;-66
2022/12/07 12:28:50;;;;;;;7.63;1.10;;;4.90;99.90;;;;;;5030501;28;20061;-67
2022/12/07 12:31:21;;;;;;;2.97;0.95;;;4.90;99.90;;;;;;5039199;28;20080;-67
2022/12/07 12:33:52;;;;;;;6.57;1.48;;;5.00;99.90;;;;;;5012614;28;20105;-67
2022/12/07 12:36:23;;;;;;;7.13;1.23;;;5.10;99.90;;;;;;4998629;28;20054;-67
2022/12/07 12:39:15;;;;;;;10.73;1.60;;;5.10;99.90;;;;;;4991431;28;20049;-67
2022/12/07 12:42:05;;;;;;;9.10;1.77;;;5.10;99.90;;;;;;4998199;28;20609;-67
2022/12/07 12:44:29;;;;;;;9.68;2.38;;;5.20;99.90;;;;;;4972986;28;20418;-67
2022/12/07 12:47:00;;;;;;;8.02;1.60;;;5.20;99.90;;;;;;4988966;28;20142;-67
2022/12/07 12:49:25;;;;;;;7.38;2.08;;;5.20;99.90;;;;;;5001188;28;20054;-67
2022/12/07 12:52:21;;;;;;;9.05;2.13;;;5.20;99.90;;;;;;5012557;28;20049;-68
2022/12/07 12:55:18;;;;;;;9.90;1.70;;;5.30;99.90;;;;;;4998568;28;20583;-67
2022/12/07 12:57:44;;;;;;;7.93;1.60;;;5.30;99.90;;;;;;5005168;28;20050;-67
2022/12/07 13:00:21;;;;;;;8.43;2.00;;;5.30;99.90;;;;;;5014323;28;20108;-67
2022/12/07 13:02:59;;;;;;;14.40;3.35;;;5.20;99.90;;;;;;5018360;28;20536;-67
2022/12/07 13:05:30;;;;;;;6.45;2.15;;;5.30;99.90;;;;;;5035860;28;20465;-67
2022/12/07 13:08:18;;;;;;;9.77;3.05;;;5.30;99.90;;;;;;5048340;28;20564;-66
2022/12/07 13:10:46;;;;;;;6.80;2.25;;;5.30;99.90;;;;;;5038621;28;20044;-67
2022/12/07 13:13:14;;;;;;;8.85;1.83;;;5.30;99.90;;;;;;5023192;28;20045;-67
2022/12/07 13:15:47;;;;;;;10.52;2.28;;;5.30;99.90;;;;;;5029672;28;20049;-66
2022/12/07 13:18:27;;;;;;;9.02;1.77;;;5.40;99.90;;;;;;5036024;28;20085;-67
2022/12/07 13:21:08;;;;;;;8.20;1.60;;;5.30;99.90;;;;;;5047894;28;20048;-67
2022/12/07 13:23:46;;;;;;;8.60;1.73;;;5.40;99.90;;;;;;5065256;28;20040;-66